Sagittarian — WCY5210 — position and weather

sailwx.info

Track history (hours):
 
Tides and Currents Weather Stations Pressure Air Temp Water Temp Dewpoint Dewpoint Depression Visibility Wind Speed Wind Dir Waves Ship Positions

Sagittarian

Owner: TAURUS MARINE, SAN FRANCISCO, CA. More information available from US FCC via Universal Licensing System and Coast Guard Vessel Documentation Center.

Last reported at 2015-Jan-31 05:33 UTC. Time now 2015-Jan-31 13:13 UTC.
Position N 37°46' W 122°23'.

; draft 3 m.

Type: Towing. MMSI: 366969510.

Date/timePositionNaut miles runAvg speedWind from/ knotsBaromVisibWave heightAir tempDewpointWater temp
2015-Jan-31 05:33N 37°46' W 122°23'0 0.1
2015-Jan-31 04:33N 37°47' W 122°23'9 9.0
2015-Jan-31 03:33N 37°55' W 122°25'0 0.4
2015-Jan-31 02:33N 37°55' W 122°25'0 0.1
2015-Jan-31 01:33N 37°55' W 122°25'1 0.8
2015-Jan-31 00:33N 37°55' W 122°25'8 7.7
2015-Jan-30 23:33N 37°47' W 122°23'3 2.6
2015-Jan-30 22:33N 37°46' W 122°20'3 2.7
2015-Jan-30 21:33N 37°46' W 122°23'0 0.1
2015-Jan-30 19:33N 37°46' W 122°23'0 0.4
2015-Jan-30 18:33N 37°47' W 122°23'8 7.9
2015-Jan-30 17:33N 37°54' W 122°26'0 0.2
2015-Jan-30 16:32N 37°55' W 122°26'4 4.4
2015-Jan-30 15:33N 37°51' W 122°24'4 0.5
2015-Jan-30 06:33N 37°47' W 122°23'9 8.9
2015-Jan-30 05:33N 37°55' W 122°25'1 0.7
2015-Jan-30 04:33N 37°55' W 122°26'0 0.3
2015-Jan-30 03:33N 37°55' W 122°26'0 0.0
2015-Jan-30 02:33N 37°55' W 122°26'0 0.4
2015-Jan-30 01:33N 37°55' W 122°26'8 7.6
2015-Jan-30 00:33N 37°48' W 122°23'1 0.2
2015-Jan-29 19:33N 37°48' W 122°24'7 7.0
2015-Jan-29 18:33N 37°55' W 122°25'0 0.4
2015-Jan-29 17:33N 37°55' W 122°25'9 8.6
2015-Jan-29 16:33N 37°46' W 122°23'0 0.0
2015-Jan-29 06:28N 37°46' W 122°23'4 4.8
2015-Jan-29 05:33N 37°51' W 122°24'5 4.6
2015-Jan-29 04:33N 37°55' W 122°25'6 5.5
2015-Jan-29 03:31N 38°01' W 122°23'9 3.1
2015-Jan-29 00:31N 38°03' W 122°12'2 0.1
2015-Jan-28 01:08N 38°04' W 122°14'4 2.2
2015-Jan-27 23:13N 38°02' W 122°09'7 6.5
2015-Jan-27 22:06N 38°03' W 122°18'5 7.7
2015-Jan-27 21:28N 38°01' W 122°23'6 6.3
2015-Jan-27 20:33N 37°56' W 122°25'2 2.2
2015-Jan-27 19:33N 37°53' W 122°24'7 7.1
2015-Jan-27 18:33N 37°46' W 122°23'2 0.1
2015-Jan-26 20:33N 37°48' W 122°23'7 7.2
2015-Jan-26 19:33N 37°55' W 122°25'2 2.0
2015-Jan-26 18:33N 37°54' W 122°25'7 7.3
2015-Jan-26 17:33N 37°46' W 122°23'  
2015-Jan-22 02:26N 37°46' W 122°23'0 0.5
2015-Jan-22 01:33N 37°47' W 122°23'1010.1
2015-Jan-22 00:33N 37°57' W 122°26'1210.8
2015-Jan-21 23:28N 38°04' W 122°14'0 0.1
2015-Jan-21 21:33N 38°04' W 122°14'1 0.1
2015-Jan-21 06:31N 38°04' W 122°15'  
Track history (hours):
 
Tides and Currents Weather Stations Pressure Air Temp Water Temp Dewpoint Dewpoint Depression Visibility Wind Speed Wind Dir Waves Ship Positions

Sagittarian

Owner: TAURUS MARINE, SAN FRANCISCO, CA. More information available from US FCC via Universal Licensing System and Coast Guard Vessel Documentation Center.

Last reported at 2015-Jan-31 05:33 UTC. Time now 2015-Jan-31 13:13 UTC.
Position N 37°46' W 122°23'.

; draft 3 m.

Type: Towing. MMSI: 366969510.

Date/timePositionNaut miles runAvg speedWind from/ knotsBaromVisibWave heightAir tempDewpointWater temp
2015-Jan-31 05:33N 37°46' W 122°23'0 0.1
2015-Jan-31 04:33N 37°47' W 122°23'9 9.0
2015-Jan-31 03:33N 37°55' W 122°25'0 0.4
2015-Jan-31 02:33N 37°55' W 122°25'0 0.1
2015-Jan-31 01:33N 37°55' W 122°25'1 0.8
2015-Jan-31 00:33N 37°55' W 122°25'8 7.7
2015-Jan-30 23:33N 37°47' W 122°23'3 2.6
2015-Jan-30 22:33N 37°46' W 122°20'3 2.7
2015-Jan-30 21:33N 37°46' W 122°23'0 0.1
2015-Jan-30 19:33N 37°46' W 122°23'0 0.4
2015-Jan-30 18:33N 37°47' W 122°23'8 7.9
2015-Jan-30 17:33N 37°54' W 122°26'0 0.2
2015-Jan-30 16:32N 37°55' W 122°26'4 4.4
2015-Jan-30 15:33N 37°51' W 122°24'4 0.5
2015-Jan-30 06:33N 37°47' W 122°23'9 8.9
2015-Jan-30 05:33N 37°55' W 122°25'1 0.7
2015-Jan-30 04:33N 37°55' W 122°26'0 0.3
2015-Jan-30 03:33N 37°55' W 122°26'0 0.0
2015-Jan-30 02:33N 37°55' W 122°26'0 0.4
2015-Jan-30 01:33N 37°55' W 122°26'8 7.6
2015-Jan-30 00:33N 37°48' W 122°23'1 0.2
2015-Jan-29 19:33N 37°48' W 122°24'7 7.0
2015-Jan-29 18:33N 37°55' W 122°25'0 0.4
2015-Jan-29 17:33N 37°55' W 122°25'9 8.6
2015-Jan-29 16:33N 37°46' W 122°23'0 0.0
2015-Jan-29 06:28N 37°46' W 122°23'4 4.8
2015-Jan-29 05:33N 37°51' W 122°24'5 4.6
2015-Jan-29 04:33N 37°55' W 122°25'6 5.5
2015-Jan-29 03:31N 38°01' W 122°23'9 3.1
2015-Jan-29 00:31N 38°03' W 122°12'2 0.1
2015-Jan-28 01:08N 38°04' W 122°14'4 2.2
2015-Jan-27 23:13N 38°02' W 122°09'7 6.5
2015-Jan-27 22:06N 38°03' W 122°18'5 7.7
2015-Jan-27 21:28N 38°01' W 122°23'6 6.3
2015-Jan-27 20:33N 37°56' W 122°25'2 2.2
2015-Jan-27 19:33N 37°53' W 122°24'7 7.1
2015-Jan-27 18:33N 37°46' W 122°23'2 0.1
2015-Jan-26 20:33N 37°48' W 122°23'7 7.2
2015-Jan-26 19:33N 37°55' W 122°25'2 2.0
2015-Jan-26 18:33N 37°54' W 122°25'7 7.3
2015-Jan-26 17:33N 37°46' W 122°23'  
2015-Jan-22 02:26N 37°46' W 122°23'0 0.5
2015-Jan-22 01:33N 37°47' W 122°23'1010.1
2015-Jan-22 00:33N 37°57' W 122°26'1210.8
2015-Jan-21 23:28N 38°04' W 122°14'0 0.1
2015-Jan-21 21:33N 38°04' W 122°14'1 0.1
2015-Jan-21 06:31N 38°04' W 122°15'  

Dump ship's entire track history